createdAt,value
2022-10-17T00:01:07.149Z,100.00
2022-10-17T00:03:35.781Z,100.00
2022-10-17T00:06:07.092Z,100.00
2022-10-17T00:08:34.905Z,100.00
2022-10-17T00:11:06.519Z,100.00
2022-10-17T00:13:34.630Z,100.00
2022-10-17T00:16:02.435Z,100.00
2022-10-17T00:18:31.547Z,100.00
2022-10-17T00:20:59.098Z,100.00
2022-10-17T00:23:27.473Z,100.00
2022-10-17T00:26:02.041Z,100.00
2022-10-17T00:28:29.677Z,100.00
2022-10-17T00:30:58.241Z,100.00
2022-10-17T00:33:25.989Z,100.00
2022-10-17T00:36:03.656Z,100.00
2022-10-17T00:38:31.274Z,100.00
2022-10-17T00:40:59.342Z,100.00
2022-10-17T00:43:27.500Z,100.00
2022-10-17T00:45:55.267Z,100.00
2022-10-17T00:48:25.450Z,100.00
2022-10-17T00:50:53.167Z,100.00
2022-10-17T00:53:22.056Z,100.00
2022-10-17T00:55:52.099Z,100.00
2022-10-17T00:58:21.951Z,100.00
2022-10-17T01:00:49.588Z,100.00
2022-10-17T01:03:17.593Z,100.00
2022-10-17T01:05:45.289Z,100.00
2022-10-17T01:08:13.895Z,100.00
2022-10-17T01:10:50.452Z,100.00
2022-10-17T01:13:26.042Z,100.00
2022-10-17T01:16:05.104Z,100.00
2022-10-17T01:18:47.011Z,100.00
2022-10-17T01:21:39.094Z,100.00
2022-10-17T01:24:36.048Z,100.00
2022-10-17T01:27:43.255Z,100.00
2022-10-17T01:30:35.192Z,100.00
2022-10-17T01:33:11.754Z,100.00
2022-10-17T01:35:45.756Z,100.00
2022-10-17T01:38:19.517Z,100.00
2022-10-17T01:40:51.920Z,100.00
2022-10-17T01:43:24.579Z,100.00
2022-10-17T01:45:58.875Z,100.00
2022-10-17T01:48:35.228Z,100.00
2022-10-17T01:51:09.773Z,100.00
2022-10-17T01:53:42.443Z,100.00
2022-10-17T01:56:14.150Z,100.00
2022-10-17T01:58:47.225Z,100.00
2022-10-17T02:01:15.110Z,100.00
2022-10-17T02:03:47.697Z,100.00
2022-10-17T02:06:15.232Z,100.00
2022-10-17T02:08:44.827Z,100.00
2022-10-17T02:11:15.793Z,100.00
2022-10-17T02:13:56.549Z,100.00
2022-10-17T02:16:35.333Z,100.00
2022-10-17T02:19:18.461Z,100.00
2022-10-17T02:21:52.209Z,100.00
2022-10-17T02:24:26.595Z,100.00
2022-10-17T02:27:01.783Z,100.00
2022-10-17T02:29:34.139Z,100.00
2022-10-17T02:32:07.573Z,100.00
2022-10-17T02:34:41.832Z,100.00
2022-10-17T02:37:12.377Z,100.00
2022-10-17T02:39:42.031Z,100.00
2022-10-17T02:42:14.784Z,100.00
2022-10-17T02:44:45.283Z,100.00
2022-10-17T02:47:22.946Z,100.00
2022-10-17T02:49:55.567Z,100.00
2022-10-17T02:52:28.719Z,100.00
2022-10-17T02:55:03.044Z,100.00
2022-10-17T02:57:35.187Z,100.00
2022-10-17T03:00:07.499Z,100.00
2022-10-17T03:02:40.881Z,100.00
2022-10-17T03:05:13.420Z,100.00
2022-10-17T03:07:40.989Z,100.00
2022-10-17T03:10:09.074Z,100.00
2022-10-17T03:12:37.496Z,100.00
2022-10-17T03:15:06.189Z,100.00
2022-10-17T03:17:34.261Z,100.00
2022-10-17T03:20:01.996Z,100.00
2022-10-17T03:22:32.480Z,100.00
2022-10-17T03:25:02.141Z,100.00
2022-10-17T03:27:30.306Z,100.00
2022-10-17T03:29:58.091Z,100.00
2022-10-17T03:32:25.710Z,100.00
2022-10-17T03:34:53.251Z,100.00
2022-10-17T03:37:21.472Z,100.00
2022-10-17T03:39:51.728Z,100.00
2022-10-17T03:42:19.400Z,100.00
2022-10-17T03:44:47.052Z,100.00
2022-10-17T03:47:14.606Z,100.00
2022-10-17T03:49:42.813Z,100.00
2022-10-17T03:52:12.428Z,100.00
2022-10-17T03:54:40.110Z,100.00
2022-10-17T03:57:09.150Z,100.00
2022-10-17T03:59:37.271Z,100.00
2022-10-17T04:02:10.512Z,100.00
2022-10-17T04:04:38.161Z,100.00
2022-10-17T04:07:06.107Z,100.00
2022-10-17T04:09:36.970Z,100.00
2022-10-17T04:12:10.833Z,100.00
2022-10-17T04:14:39.079Z,100.00
2022-10-17T04:17:06.649Z,100.00
2022-10-17T04:19:35.655Z,100.00
2022-10-17T04:22:03.944Z,100.00
2022-10-17T04:24:35.037Z,100.00
2022-10-17T04:27:22.461Z,100.00
2022-10-17T04:29:50.054Z,100.00
2022-10-17T04:32:22.631Z,100.00
2022-10-17T04:35:10.452Z,100.00
2022-10-17T04:37:40.459Z,100.00
2022-10-17T04:40:13.752Z,100.00
2022-10-17T04:42:42.998Z,100.00
2022-10-17T04:45:14.056Z,100.00
2022-10-17T04:47:42.566Z,100.00
2022-10-17T04:50:10.654Z,100.00
2022-10-17T04:52:39.950Z,100.00
2022-10-17T04:55:09.287Z,100.00
2022-10-17T04:57:37.330Z,100.00
2022-10-17T05:00:17.003Z,100.00
2022-10-17T05:02:56.063Z,100.00
2022-10-17T05:05:23.564Z,100.00
2022-10-17T05:07:53.976Z,100.00
2022-10-17T05:10:25.701Z,100.00
2022-10-17T05:12:54.777Z,100.00
2022-10-17T05:15:26.101Z,100.00
2022-10-17T05:17:56.106Z,100.00
2022-10-17T05:20:24.653Z,100.00
2022-10-17T05:22:52.297Z,100.00
2022-10-17T05:25:21.287Z,100.00
2022-10-17T05:27:48.830Z,100.00
2022-10-17T05:30:16.613Z,100.00
2022-10-17T05:32:46.267Z,100.00
2022-10-17T05:35:14.053Z,100.00
2022-10-17T05:37:42.277Z,100.00
2022-10-17T05:40:11.553Z,100.00
2022-10-17T05:45:09.983Z,100.00
2022-10-17T05:47:37.578Z,100.00
2022-10-17T05:50:07.915Z,100.00
2022-10-17T05:52:54.068Z,100.00
2022-10-17T05:55:23.776Z,100.00
2022-10-17T05:57:52.694Z,100.00
2022-10-17T06:00:21.596Z,100.00
2022-10-17T06:02:56.574Z,100.00
2022-10-17T06:05:26.384Z,100.00
2022-10-17T06:07:57.038Z,100.00
2022-10-17T06:10:27.875Z,100.00
2022-10-17T06:12:56.587Z,100.00
2022-10-17T06:15:24.240Z,100.00
2022-10-17T06:17:58.173Z,100.00
2022-10-17T06:20:27.283Z,100.00
2022-10-17T06:22:54.898Z,100.00
2022-10-17T06:25:36.568Z,100.00
2022-10-17T06:28:04.730Z,100.00
2022-10-17T06:30:32.473Z,100.00
2022-10-17T06:33:00.010Z,100.00
2022-10-17T06:35:28.863Z,100.00
2022-10-17T06:37:57.753Z,100.00
2022-10-17T06:40:25.841Z,100.00
2022-10-17T06:42:53.516Z,100.00
2022-10-17T06:45:26.351Z,100.00
2022-10-17T06:48:10.122Z,100.00
2022-10-17T06:50:46.280Z,100.00
2022-10-17T06:53:18.021Z,100.00
2022-10-17T06:55:53.026Z,100.00
2022-10-17T06:58:43.889Z,100.00
2022-10-17T07:01:24.099Z,100.00
2022-10-17T07:03:55.834Z,100.00
2022-10-17T07:06:25.425Z,100.00
2022-10-17T07:08:55.584Z,100.00
2022-10-17T07:11:23.735Z,100.00
2022-10-17T07:13:54.088Z,100.00
2022-10-17T07:16:23.084Z,100.00
2022-10-17T07:18:58.529Z,100.00
2022-10-17T07:21:27.448Z,100.00
2022-10-17T07:23:55.300Z,100.00
2022-10-17T07:26:23.121Z,100.00
2022-10-17T07:28:54.122Z,100.00
2022-10-17T07:31:48.735Z,100.00
2022-10-17T07:34:16.421Z,100.00
2022-10-17T07:36:46.812Z,100.00
2022-10-17T07:39:15.878Z,100.00
2022-10-17T07:41:43.380Z,100.00
2022-10-17T07:44:11.512Z,100.00
2022-10-17T07:46:44.848Z,100.00
2022-10-17T07:49:12.682Z,100.00
2022-10-17T07:51:41.512Z,100.00
2022-10-17T07:54:10.429Z,100.00
2022-10-17T07:56:38.202Z,100.00
2022-10-17T07:59:08.494Z,100.00
2022-10-17T08:01:37.850Z,100.00
2022-10-17T08:04:05.357Z,100.00
2022-10-17T08:06:32.896Z,100.00
2022-10-17T08:09:01.514Z,100.00
2022-10-17T08:11:30.415Z,100.00
2022-10-17T08:13:57.952Z,100.00
2022-10-17T08:16:25.486Z,100.00
2022-10-17T08:18:52.983Z,100.00
2022-10-17T08:21:20.776Z,100.00
2022-10-17T08:23:48.314Z,100.00
2022-10-17T08:26:17.181Z,100.00
2022-10-17T08:28:46.147Z,100.00
2022-10-17T08:31:15.700Z,100.00
2022-10-17T08:33:43.689Z,100.00
2022-10-17T08:36:14.148Z,98.82
2022-10-17T08:38:43.624Z,98.14
2022-10-17T08:41:21.105Z,94.80
2022-10-17T08:44:11.912Z,95.15
2022-10-17T08:46:43.245Z,94.08
2022-10-17T08:49:14.613Z,93.62
2022-10-17T08:51:48.971Z,92.02
2022-10-17T08:54:21.393Z,91.63
2022-10-17T08:56:51.050Z,90.25
2022-10-17T08:59:24.380Z,89.53
2022-10-17T09:01:58.056Z,89.86
2022-10-17T09:04:47.035Z,90.67
2022-10-17T09:07:22.985Z,89.82
2022-10-17T09:10:00.056Z,86.90
2022-10-17T09:12:37.427Z,85.19
2022-10-17T09:15:32.704Z,83.52
2022-10-17T09:18:04.285Z,82.72
2022-10-17T09:20:35.228Z,83.11
2022-10-17T09:23:11.152Z,82.55
2022-10-17T09:25:44.804Z,79.33
2022-10-17T09:28:18.890Z,79.98
2022-10-17T09:30:52.660Z,80.17
2022-10-17T09:33:34.562Z,78.20
2022-10-17T09:36:06.140Z,77.74
2022-10-17T09:38:40.083Z,76.81
2022-10-17T09:41:42.800Z,71.48
2022-10-17T09:44:15.326Z,71.52
2022-10-17T09:46:55.674Z,69.80
2022-10-17T09:49:30.170Z,72.13
2022-10-17T09:51:58.325Z,71.73
2022-10-17T09:54:29.938Z,70.98
2022-10-17T09:56:59.507Z,70.10
2022-10-17T09:59:35.248Z,70.98
2022-10-17T10:02:16.968Z,68.47
2022-10-17T10:05:09.560Z,69.29
2022-10-17T10:07:39.291Z,67.56
2022-10-17T10:10:23.750Z,67.54
2022-10-17T10:13:04.746Z,66.91
2022-10-17T10:15:35.819Z,65.32
2022-10-17T10:18:04.864Z,63.28
2022-10-17T10:20:35.545Z,62.33
2022-10-17T10:23:14.261Z,61.24
2022-10-17T10:25:53.558Z,60.54
2022-10-17T10:28:23.408Z,61.32
2022-10-17T10:30:52.723Z,58.30
2022-10-17T10:33:23.892Z,58.68
2022-10-17T10:36:01.133Z,57.90
2022-10-17T10:38:29.214Z,59.18
2022-10-17T10:40:58.485Z,58.28
2022-10-17T10:43:33.901Z,57.66
2022-10-17T10:46:01.952Z,57.42
2022-10-17T10:48:35.146Z,56.32
2022-10-17T10:51:06.549Z,56.04
2022-10-17T10:53:42.636Z,54.43
2022-10-17T10:56:17.639Z,55.34
2022-10-17T10:58:56.091Z,53.93
2022-10-17T11:01:32.458Z,54.03
2022-10-17T11:04:20.517Z,53.72
2022-10-17T11:06:51.510Z,52.65
2022-10-17T11:09:33.766Z,52.33
2022-10-17T11:12:06.279Z,52.88
2022-10-17T11:14:43.254Z,52.53
2022-10-17T11:17:22.660Z,52.25
2022-10-17T11:20:00.383Z,50.67
2022-10-17T11:22:32.177Z,50.88
2022-10-17T11:25:04.952Z,50.23
2022-10-17T11:27:34.955Z,49.84
2022-10-17T11:30:03.527Z,48.80
2022-10-17T11:32:38.609Z,46.89
2022-10-17T11:35:17.553Z,46.35
2022-10-17T11:37:50.920Z,46.04
2022-10-17T11:40:24.470Z,45.23
2022-10-17T11:42:58.374Z,45.41
2022-10-17T11:45:28.980Z,45.10
2022-10-17T11:48:02.684Z,44.25
2022-10-17T11:53:25.619Z,44.53
2022-10-17T11:55:55.407Z,41.38
2022-10-17T11:58:31.644Z,41.89
2022-10-17T12:01:08.594Z,43.32
2022-10-17T12:03:50.224Z,40.63
2022-10-17T12:06:33.141Z,42.06
2022-10-17T12:09:11.353Z,41.18
2022-10-17T12:11:50.675Z,41.97
2022-10-17T12:14:41.720Z,42.38
2022-10-17T12:17:30.369Z,41.41
2022-10-17T12:20:27.287Z,41.25
2022-10-17T12:22:58.718Z,41.35
2022-10-17T12:25:30.213Z,42.32
2022-10-17T12:28:13.054Z,41.95
2022-10-17T12:30:52.439Z,41.26
2022-10-17T12:33:22.900Z,42.14
2022-10-17T12:35:52.084Z,40.18
2022-10-17T12:38:26.964Z,40.19
2022-10-17T12:40:59.611Z,38.26
2022-10-17T12:46:55.326Z,37.18
2022-10-17T12:49:49.698Z,36.52
2022-10-17T12:52:25.666Z,38.69
2022-10-17T12:55:11.521Z,40.03
2022-10-17T12:57:45.357Z,39.90
2022-10-17T13:00:20.295Z,37.80
2022-10-17T13:02:49.349Z,37.72
2022-10-17T13:05:23.141Z,36.68
2022-10-17T13:07:52.875Z,36.91
2022-10-17T13:13:06.884Z,34.65
2022-10-17T13:15:35.117Z,35.56
2022-10-17T13:18:03.063Z,35.37
2022-10-17T13:20:32.523Z,34.56
2022-10-17T13:23:00.224Z,34.36
2022-10-17T13:25:29.516Z,33.10
2022-10-17T13:28:15.752Z,32.73
2022-10-17T13:30:49.635Z,33.38
2022-10-17T13:33:31.888Z,32.64
2022-10-17T13:36:01.361Z,32.83
2022-10-17T13:38:33.405Z,32.45
2022-10-17T13:41:33.577Z,31.58
2022-10-17T13:43:52.992Z,32.21
2022-10-17T13:46:39.229Z,34.25
2022-10-17T13:49:13.648Z,33.63
2022-10-17T13:51:45.465Z,31.16
2022-10-17T13:54:32.466Z,31.82
2022-10-17T13:57:02.721Z,31.31
2022-10-17T13:59:35.036Z,32.38
2022-10-17T14:02:02.967Z,31.36
2022-10-17T14:04:44.669Z,30.46
2022-10-17T14:07:27.697Z,30.48
2022-10-17T14:09:55.662Z,29.40
2022-10-17T14:12:24.668Z,28.87
2022-10-17T14:15:11.133Z,28.48
2022-10-17T14:17:40.321Z,29.77
2022-10-17T14:20:48.263Z,30.91
2022-10-17T14:23:21.445Z,30.19
2022-10-17T14:25:45.837Z,31.69
2022-10-17T14:28:18.246Z,30.93
2022-10-17T14:31:03.204Z,31.37
2022-10-17T14:33:32.402Z,30.50
2022-10-17T14:36:03.576Z,29.92
2022-10-17T14:38:31.575Z,28.15
2022-10-17T14:41:30.545Z,28.37
2022-10-17T14:43:56.991Z,29.04
2022-10-17T14:46:24.880Z,30.02
2022-10-17T14:48:54.877Z,30.43
2022-10-17T14:51:22.420Z,32.26
2022-10-17T14:54:05.507Z,32.11
2022-10-17T14:56:40.788Z,32.73
2022-10-17T14:59:13.756Z,34.01
2022-10-17T15:01:45.727Z,35.74
2022-10-17T15:04:13.221Z,36.83
2022-10-17T15:06:41.289Z,37.27
2022-10-17T15:09:08.902Z,37.57
2022-10-17T15:11:36.908Z,39.62
2022-10-17T15:14:04.465Z,39.44
2022-10-17T15:16:35.348Z,41.07
2022-10-17T15:19:02.877Z,41.16
2022-10-17T15:21:40.495Z,42.50
2022-10-17T15:24:09.552Z,44.24
2022-10-17T15:26:37.766Z,44.95
2022-10-17T15:29:06.083Z,45.07
2022-10-17T15:31:35.829Z,45.52
2022-10-17T15:34:03.351Z,46.57
2022-10-17T15:36:40.079Z,46.02
2022-10-17T15:39:07.647Z,48.33
2022-10-17T15:41:35.539Z,50.06
2022-10-17T15:44:03.147Z,51.75
2022-10-17T15:46:33.701Z,51.95
2022-10-17T15:49:07.433Z,52.56
2022-10-17T15:51:35.297Z,54.43
2022-10-17T15:54:03.025Z,54.55
2022-10-17T15:56:35.783Z,55.65
2022-10-17T15:59:04.347Z,57.42
2022-10-17T16:01:33.364Z,58.75
2022-10-17T16:04:01.144Z,58.97
2022-10-17T16:06:30.240Z,60.42
2022-10-17T16:08:57.767Z,61.75
2022-10-17T16:11:36.708Z,63.35
2022-10-17T16:14:06.600Z,63.88
2022-10-17T16:16:34.333Z,64.89
2022-10-17T16:19:02.439Z,66.34
2022-10-17T16:21:33.461Z,66.44
2022-10-17T16:24:01.096Z,67.34
2022-10-17T16:26:29.279Z,68.48
2022-10-17T16:28:58.050Z,69.57
2022-10-17T16:31:29.150Z,70.15
2022-10-17T16:33:58.636Z,70.68
2022-10-17T16:36:26.367Z,72.05
2022-10-17T16:38:55.558Z,73.01
2022-10-17T16:41:25.011Z,73.90
2022-10-17T16:43:54.280Z,74.42
2022-10-17T16:46:22.787Z,75.53
2022-10-17T16:48:50.828Z,76.40
2022-10-17T16:51:19.946Z,77.61
2022-10-17T16:53:49.972Z,78.19
2022-10-17T16:56:21.386Z,78.68
2022-10-17T16:58:49.659Z,79.77
2022-10-17T17:01:20.061Z,80.34
2022-10-17T17:03:48.775Z,81.03
2022-10-17T17:06:19.072Z,80.90
2022-10-17T17:08:47.612Z,81.47
2022-10-17T17:11:20.640Z,82.19
2022-10-17T17:13:48.452Z,82.90
2022-10-17T17:16:18.407Z,82.99
2022-10-17T17:18:46.791Z,83.59
2022-10-17T17:21:14.365Z,83.86
2022-10-17T17:23:43.772Z,84.79
2022-10-17T17:26:13.606Z,84.72
2022-10-17T17:28:42.742Z,84.56
2022-10-17T17:31:12.171Z,85.73
2022-10-17T17:33:40.949Z,86.49
2022-10-17T17:36:09.292Z,86.73
2022-10-17T17:38:37.369Z,86.69
2022-10-17T17:41:05.478Z,86.57
2022-10-17T17:43:33.026Z,87.55
2022-10-17T17:46:03.308Z,88.55
2022-10-17T17:48:31.146Z,88.63
2022-10-17T17:51:03.552Z,89.07
2022-10-17T17:53:31.232Z,88.93
2022-10-17T17:56:02.338Z,90.12
2022-10-17T17:58:29.875Z,90.44
2022-10-17T18:00:57.661Z,91.06
2022-10-17T18:03:27.196Z,91.12
2022-10-17T18:05:54.961Z,91.77
2022-10-17T18:08:23.123Z,91.80
2022-10-17T18:10:54.356Z,92.07
2022-10-17T18:13:21.906Z,91.93
2022-10-17T18:15:51.748Z,91.75
2022-10-17T18:18:19.632Z,91.33
2022-10-17T18:20:48.498Z,91.55
2022-10-17T18:23:17.670Z,91.77
2022-10-17T18:25:54.257Z,92.16
2022-10-17T18:28:21.867Z,92.76
2022-10-17T18:30:49.777Z,92.72
2022-10-17T18:33:17.611Z,92.58
2022-10-17T18:35:45.171Z,92.75
2022-10-17T18:38:14.044Z,92.73
2022-10-17T18:40:41.569Z,92.66
2022-10-17T18:43:09.083Z,92.63
2022-10-17T18:45:36.635Z,93.35
2022-10-17T18:48:04.164Z,93.46
2022-10-17T18:50:31.869Z,93.66
2022-10-17T18:52:59.704Z,94.22
2022-10-17T18:55:28.657Z,94.10
2022-10-17T18:57:56.264Z,93.85
2022-10-17T19:00:23.823Z,93.98
2022-10-17T19:02:51.390Z,94.42
2022-10-17T19:05:19.085Z,95.68
2022-10-17T19:07:47.218Z,95.36
2022-10-17T19:10:14.844Z,95.38
2022-10-17T19:12:43.734Z,95.77
2022-10-17T19:15:11.407Z,95.61
2022-10-17T19:17:38.976Z,96.07
2022-10-17T19:20:07.929Z,96.28
2022-10-17T19:22:35.472Z,96.28
2022-10-17T19:25:03.074Z,95.68
2022-10-17T19:27:31.005Z,96.43
2022-10-17T19:30:00.317Z,96.24
2022-10-17T19:32:28.191Z,96.35
2022-10-17T19:34:56.073Z,96.16
2022-10-17T19:37:23.669Z,96.80
2022-10-17T19:39:51.460Z,96.33
2022-10-17T19:42:19.077Z,96.03
2022-10-17T19:44:46.881Z,95.97
2022-10-17T19:47:15.808Z,95.89
2022-10-17T19:49:47.694Z,95.94
2022-10-17T19:52:17.379Z,95.40
2022-10-17T19:54:44.933Z,95.61
2022-10-17T19:57:12.505Z,96.41
2022-10-17T19:59:40.100Z,96.74
2022-10-17T20:02:07.741Z,96.85
2022-10-17T20:04:42.079Z,96.51
2022-10-17T20:07:17.405Z,96.62
2022-10-17T20:09:45.027Z,96.93
2022-10-17T20:12:12.678Z,97.48
2022-10-17T20:14:41.220Z,96.97
2022-10-17T20:17:09.055Z,97.58
2022-10-17T20:19:38.064Z,97.32
2022-10-17T20:22:05.708Z,96.76
2022-10-17T20:24:33.398Z,97.03
2022-10-17T20:27:01.115Z,97.25
2022-10-17T20:29:28.920Z,97.42
2022-10-17T20:31:57.588Z,97.30
2022-10-17T20:34:25.300Z,97.61
2022-10-17T20:36:54.485Z,97.85
2022-10-17T20:39:22.197Z,97.65
2022-10-17T20:41:50.007Z,97.85
2022-10-17T20:44:17.722Z,98.60
2022-10-17T20:47:00.556Z,98.46
2022-10-17T20:49:30.059Z,98.70
2022-10-17T20:51:59.148Z,98.66
2022-10-17T20:54:28.238Z,98.87
2022-10-17T20:56:57.802Z,98.82
2022-10-17T20:59:28.085Z,98.82
2022-10-17T21:01:56.094Z,98.72
2022-10-17T21:07:12.813Z,98.77
2022-10-17T21:09:40.426Z,98.71
2022-10-17T21:12:08.028Z,98.71
2022-10-17T21:14:36.330Z,98.90
2022-10-17T21:17:05.501Z,99.05
2022-10-17T21:19:33.392Z,98.94
2022-10-17T21:22:01.284Z,99.35
2022-10-17T21:24:31.445Z,99.02
2022-10-17T21:26:59.016Z,99.05
2022-10-17T21:29:26.808Z,99.41
2022-10-17T21:31:54.390Z,99.67
2022-10-17T21:34:24.965Z,99.63
2022-10-17T21:36:53.475Z,99.92
2022-10-17T21:39:21.731Z,100.00
2022-10-17T21:41:50.777Z,100.00
2022-10-17T21:44:19.994Z,100.00
2022-10-17T21:46:48.252Z,100.00
2022-10-17T21:49:17.817Z,100.00
2022-10-17T21:51:45.829Z,100.00
2022-10-17T21:54:13.382Z,100.00
2022-10-17T21:56:41.653Z,100.00
2022-10-17T21:59:10.831Z,100.00
2022-10-17T22:01:40.835Z,100.00
2022-10-17T22:04:11.801Z,100.00
2022-10-17T22:06:41.656Z,100.00
2022-10-17T22:09:13.738Z,100.00
2022-10-17T22:11:41.615Z,100.00
2022-10-17T22:14:14.496Z,100.00
2022-10-17T22:16:44.120Z,100.00
2022-10-17T22:19:13.253Z,100.00
2022-10-17T22:21:40.874Z,100.00
2022-10-17T22:24:11.408Z,100.00
2022-10-17T22:26:39.668Z,100.00
2022-10-17T22:29:08.370Z,100.00
2022-10-17T22:31:38.202Z,100.00
2022-10-17T22:34:07.133Z,100.00
2022-10-17T22:36:35.293Z,100.00
2022-10-17T22:39:03.149Z,100.00
2022-10-17T22:41:30.886Z,100.00
2022-10-17T22:43:58.432Z,100.00
2022-10-17T22:46:26.593Z,100.00
2022-10-17T22:48:55.569Z,100.00
2022-10-17T22:53:51.842Z,100.00
2022-10-17T22:56:21.442Z,100.00
2022-10-17T22:58:49.415Z,100.00
2022-10-17T23:01:19.473Z,100.00
2022-10-17T23:03:47.780Z,100.00
2022-10-17T23:06:17.215Z,100.00
2022-10-17T23:08:45.227Z,100.00
2022-10-17T23:11:13.022Z,100.00
2022-10-17T23:13:40.691Z,100.00
2022-10-17T23:16:09.142Z,99.98
2022-10-17T23:18:38.024Z,100.00
2022-10-17T23:21:06.517Z,100.00
2022-10-17T23:23:35.748Z,100.00
2022-10-17T23:26:08.002Z,100.00
2022-10-17T23:28:35.993Z,100.00
2022-10-17T23:31:15.314Z,100.00
2022-10-17T23:33:44.808Z,100.00
2022-10-17T23:36:13.639Z,100.00
2022-10-17T23:38:44.556Z,100.00
2022-10-17T23:41:27.267Z,100.00
2022-10-17T23:43:54.836Z,100.00
2022-10-17T23:46:22.422Z,100.00
2022-10-17T23:48:50.176Z,100.00
2022-10-17T23:51:18.115Z,100.00
2022-10-17T23:53:46.977Z,100.00
2022-10-17T23:56:15.043Z,100.00
2022-10-17T23:58:42.697Z,100.00
